»·PEaware :: WAT446 KSFO-KLAS

WAT446 :: KSFO-KLAS

FLIGHT INFORMATION

Flight Status: Arrived
Operator:
Walker Air Transport
More flights by this operator :: More flights under this callsign
Pilot: Robert C. (30425)
Aircraft: BOEING 767-300
(B763)
More flights by this aircraft type
Origin: KSFO San Francisco Intl
United States
Destination: KLAS Harry Reid Intl
United States
More flights between these airports :: More routes between these airports
Route: WESLA4 NTELL Q174 FLCHR COKTL1
File this flight plan on PilotEdge
Remarks: RMK / SIMBRIEF
Altitude:
(Current/Filed)
37,000ft
Speed:
(Current/Filed)
472kts
Departed: 20-Mar-21 08:23 PM
Arrived: 20-Mar-21 09:28 PM
Distance/Time
Traveled:
359nm/1:04
Distance/Time
To Go:
Arrived

Flight Plot

Page will automatically refresh every two minutes.

Flight plan parsing failed; only flown route is shown


Map Options




Map Legend


Flown Route
Filed Route
Departure Airport
Arrival Airport
Navaid (VOR, NDB)
Fix

Horizontal Profiles

Position Reports

Time Latitude Longitude Heading Altitude Ground
Speed
20-Mar-21 19:41 37.617876 -122.380535 257 21ft 0kts
20-Mar-21 19:54 37.617876 -122.380535 257 21ft 0kts
20-Mar-21 19:55 37.617876 -122.380535 257 21ft 0kts
20-Mar-21 19:56 37.617876 -122.380535 257 21ft 0kts
20-Mar-21 19:56 37.617876 -122.380535 257 21ft 0kts
20-Mar-21 19:58 37.617876 -122.380535 257 21ft 0kts
20-Mar-21 19:59 37.617876 -122.380535 257 21ft 0kts
20-Mar-21 20:00 37.617876 -122.380535 257 21ft 0kts
20-Mar-21 20:01 37.617876 -122.380535 257 21ft 0kts
20-Mar-21 20:02 37.617876 -122.380535 257 21ft 0kts
20-Mar-21 20:03 37.617876 -122.380534 257 21ft 0kts
20-Mar-21 20:04 37.617876 -122.380534 257 21ft 0kts
20-Mar-21 20:05 37.617876 -122.380534 257 21ft 0kts
20-Mar-21 20:07 37.617876 -122.380534 257 21ft 0kts
20-Mar-21 20:08 37.617974 -122.379987 258 21ft 2kts
20-Mar-21 20:10 37.617693 -122.379492 351 21ft 0kts
20-Mar-21 20:11 37.617693 -122.379492 351 21ft 0kts
20-Mar-21 20:12 37.617693 -122.379492 351 21ft 0kts
20-Mar-21 20:14 37.618658 -122.379080 67 21ft 0kts
20-Mar-21 20:16 37.617257 -122.375298 113 21ft 27kts
20-Mar-21 20:17 37.613987 -122.368243 131 20ft 29kts
20-Mar-21 20:18 37.610810 -122.359199 36 22ft 0kts
20-Mar-21 20:21 37.614066 -122.364080 298 21ft 85kts
20-Mar-21 20:22 37.643742 -122.431389 297 2199ft 210kts
20-Mar-21 20:34 37.244935 -121.510528 105 27187ft 418kts
20-Mar-21 20:38 37.141549 -121.012414 107 32774ft 428kts
20-Mar-21 20:39 37.121273 -120.916039 108 33607ft 428kts
20-Mar-21 20:40 37.080361 -120.722924 109 34914ft 431kts
20-Mar-21 20:40 37.080361 -120.722924 109 34914ft 431kts
20-Mar-21 20:41 37.049252 -120.577163 109 35687ft 435kts
20-Mar-21 20:42 37.006315 -120.377595 109 36013ft 459kts
20-Mar-21 20:43 36.983840 -120.273733 110 36347ft 466kts
20-Mar-21 20:44 36.954960 -120.141125 110 36501ft 481kts
20-Mar-21 20:44 36.931392 -120.033338 110 37054ft 481kts
20-Mar-21 20:45 36.911278 -119.924300 99 37221ft 489kts
20-Mar-21 20:46 36.918449 -119.811299 71 37273ft 496kts
20-Mar-21 20:47 36.994241 -119.600260 64 37267ft 507kts
20-Mar-21 20:48 37.030112 -119.490373 65 37268ft 515kts
20-Mar-21 20:49 37.084307 -119.322881 66 37257ft 530kts
20-Mar-21 20:49 37.084307 -119.322881 66 37257ft 530kts
20-Mar-21 20:50 37.157981 -119.093485 66 37194ft 530kts
20-Mar-21 20:52 37.249336 -118.806553 67 37161ft 534kts
20-Mar-21 20:54 37.295899 -118.470628 85 37115ft 533kts
20-Mar-21 20:55 37.312191 -118.254028 86 37105ft 533kts
20-Mar-21 20:56 37.330297 -118.006325 86 37108ft 533kts
20-Mar-21 20:57 37.343548 -117.820367 86 37110ft 533kts
20-Mar-21 20:58 37.354318 -117.665996 86 37113ft 533kts
20-Mar-21 20:59 37.362847 -117.541691 86 37119ft 533kts
20-Mar-21 21:00 37.372230 -117.357371 96 37152ft 522kts
20-Mar-21 21:00 37.340891 -117.211943 123 37146ft 515kts
20-Mar-21 21:01 37.250008 -117.079443 140 37145ft 499kts
20-Mar-21 21:02 37.155887 -116.951536 139 35975ft 505kts
20-Mar-21 21:03 37.053637 -116.835438 153 32962ft 487kts
20-Mar-21 21:04 36.941309 -116.738445 154 32490ft 494kts
20-Mar-21 21:05 36.827313 -116.641772 158 31762ft 494kts
20-Mar-21 21:06 36.702117 -116.600658 183 29946ft 451kts
20-Mar-21 21:07 36.584110 -116.546091 146 27773ft 472kts
20-Mar-21 21:08 36.515060 -116.412934 99 25562ft 432kts
20-Mar-21 21:09 36.485396 -116.273331 122 23451ft 425kts
20-Mar-21 21:10 36.414299 -116.157041 132 21256ft 421kts
20-Mar-21 21:11 36.337089 -116.048708 131 19084ft 415kts
20-Mar-21 21:12 36.265680 -115.948926 131 18988ft 364kts
20-Mar-21 21:13 36.201736 -115.850376 126 17967ft 364kts
20-Mar-21 21:14 36.140777 -115.751759 116 16282ft 356kts
20-Mar-21 21:15 36.105396 -115.642005 108 14573ft 324kts
20-Mar-21 21:16 36.073908 -115.539967 109 13139ft 313kts
20-Mar-21 21:17 36.043129 -115.440535 109 12147ft 306kts
20-Mar-21 21:18 36.016365 -115.347797 95 11099ft 260kts
20-Mar-21 21:19 36.011095 -115.261048 92 9896ft 251kts
20-Mar-21 21:20 36.006177 -115.174907 93 8699ft 251kts
20-Mar-21 21:21 36.004247 -115.088296 88 7557ft 250kts
20-Mar-21 21:22 36.006741 -115.004338 88 6398ft 242kts
20-Mar-21 21:23 36.045642 -114.951347 359 4627ft 236kts
20-Mar-21 21:24 36.079179 -114.999115 256 3156ft 188kts
20-Mar-21 21:25 36.072780 -115.055734 265 3056ft 139kts
20-Mar-21 21:26 36.073350 -115.105524 266 2552ft 142kts
20-Mar-21 21:27 36.073553 -115.144925 270 2104ft 37kts
20-Mar-21 21:28 36.074790 -115.150708 308 2124ft 5kts
20-Mar-21 21:29 36.077440 -115.152573 339 2126ft 0kts
20-Mar-21 21:30 36.079793 -115.153959 333 2127ft 38kts

Navigation Log

Ident Type
Flight plan parsing failed, navigation log unavailable